sensor_id;sensor_type;location;lat;lon;timestamp;P1;durP1;ratioP1;P2;durP2;ratioP2
25391;SDS011;13329;48.402;11.718;2024-02-26T00:00:30;12.38;;;7.47;;
25391;SDS011;13329;48.402;11.718;2024-02-26T00:02:55;9.95;;;6.15;;
25391;SDS011;13329;48.402;11.718;2024-02-26T00:05:21;10.32;;;6.40;;
25391;SDS011;13329;48.402;11.718;2024-02-26T00:07:46;11.13;;;6.05;;
25391;SDS011;13329;48.402;11.718;2024-02-26T00:10:12;13.68;;;6.22;;
25391;SDS011;13329;48.402;11.718;2024-02-26T00:12:38;9.30;;;5.93;;
25391;SDS011;13329;48.402;11.718;2024-02-26T00:15:04;11.13;;;6.47;;
25391;SDS011;13329;48.402;11.718;2024-02-26T00:17:30;9.88;;;5.45;;
25391;SDS011;13329;48.402;11.718;2024-02-26T00:19:56;14.32;;;5.13;;
25391;SDS011;13329;48.402;11.718;2024-02-26T00:22:21;10.52;;;6.07;;
25391;SDS011;13329;48.402;11.718;2024-02-26T00:24:47;11.00;;;6.15;;
25391;SDS011;13329;48.402;11.718;2024-02-26T00:27:12;8.15;;;5.43;;
25391;SDS011;13329;48.402;11.718;2024-02-26T00:29:37;7.18;;;4.90;;
25391;SDS011;13329;48.402;11.718;2024-02-26T00:32:03;14.07;;;6.55;;
25391;SDS011;13329;48.402;11.718;2024-02-26T00:34:28;16.23;;;5.95;;
25391;SDS011;13329;48.402;11.718;2024-02-26T00:36:54;10.43;;;5.38;;
25391;SDS011;13329;48.402;11.718;2024-02-26T00:39:19;9.55;;;4.93;;
25391;SDS011;13329;48.402;11.718;2024-02-26T00:41:44;8.25;;;4.90;;
25391;SDS011;13329;48.402;11.718;2024-02-26T00:44:09;8.20;;;5.95;;
25391;SDS011;13329;48.402;11.718;2024-02-26T00:46:35;16.85;;;6.07;;
25391;SDS011;13329;48.402;11.718;2024-02-26T00:49:00;8.77;;;5.65;;
25391;SDS011;13329;48.402;11.718;2024-02-26T00:51:26;6.28;;;5.45;;
25391;SDS011;13329;48.402;11.718;2024-02-26T00:53:51;12.20;;;4.72;;
25391;SDS011;13329;48.402;11.718;2024-02-26T00:56:17;8.32;;;4.53;;
25391;SDS011;13329;48.402;11.718;2024-02-26T00:58:42;12.65;;;5.90;;
25391;SDS011;13329;48.402;11.718;2024-02-26T01:01:07;9.03;;;5.80;;
25391;SDS011;13329;48.402;11.718;2024-02-26T01:03:33;5.97;;;4.60;;
25391;SDS011;13329;48.402;11.718;2024-02-26T01:05:58;7.10;;;4.82;;
25391;SDS011;13329;48.402;11.718;2024-02-26T01:08:23;14.32;;;6.25;;
25391;SDS011;13329;48.402;11.718;2024-02-26T01:10:48;9.45;;;6.18;;
25391;SDS011;13329;48.402;11.718;2024-02-26T01:13:14;17.13;;;5.53;;
25391;SDS011;13329;48.402;11.718;2024-02-26T01:15:39;7.60;;;5.13;;
25391;SDS011;13329;48.402;11.718;2024-02-26T01:18:05;7.68;;;5.07;;
25391;SDS011;13329;48.402;11.718;2024-02-26T01:20:30;8.77;;;5.20;;
25391;SDS011;13329;48.402;11.718;2024-02-26T01:22:55;6.20;;;3.95;;
25391;SDS011;13329;48.402;11.718;2024-02-26T01:25:20;7.70;;;4.60;;
25391;SDS011;13329;48.402;11.718;2024-02-26T01:27:46;12.05;;;6.03;;
25391;SDS011;13329;48.402;11.718;2024-02-26T01:30:11;11.23;;;5.57;;
25391;SDS011;13329;48.402;11.718;2024-02-26T01:32:37;7.80;;;5.28;;
25391;SDS011;13329;48.402;11.718;2024-02-26T01:35:02;7.32;;;5.03;;
25391;SDS011;13329;48.402;11.718;2024-02-26T01:37:34;11.73;;;4.63;;
25391;SDS011;13329;48.402;11.718;2024-02-26T01:40:00;6.90;;;4.90;;
25391;SDS011;13329;48.402;11.718;2024-02-26T01:42:28;7.57;;;5.70;;
25391;SDS011;13329;48.402;11.718;2024-02-26T01:44:54;9.60;;;5.53;;
25391;SDS011;13329;48.402;11.718;2024-02-26T01:47:19;5.47;;;4.57;;
25391;SDS011;13329;48.402;11.718;2024-02-26T01:49:45;6.95;;;4.53;;
25391;SDS011;13329;48.402;11.718;2024-02-26T01:52:10;11.18;;;4.53;;
25391;SDS011;13329;48.402;11.718;2024-02-26T01:54:36;9.27;;;4.03;;
25391;SDS011;13329;48.402;11.718;2024-02-26T01:57:02;5.80;;;4.82;;
25391;SDS011;13329;48.402;11.718;2024-02-26T01:59:30;7.38;;;4.63;;
25391;SDS011;13329;48.402;11.718;2024-02-26T02:01:57;11.48;;;5.63;;
25391;SDS011;13329;48.402;11.718;2024-02-26T02:04:26;9.88;;;5.40;;
25391;SDS011;13329;48.402;11.718;2024-02-26T02:06:52;5.55;;;4.53;;
25391;SDS011;13329;48.402;11.718;2024-02-26T02:09:18;8.70;;;5.35;;
25391;SDS011;13329;48.402;11.718;2024-02-26T02:11:44;19.35;;;5.13;;
25391;SDS011;13329;48.402;11.718;2024-02-26T02:14:09;6.78;;;4.45;;
25391;SDS011;13329;48.402;11.718;2024-02-26T02:16:35;4.13;;;3.53;;
25391;SDS011;13329;48.402;11.718;2024-02-26T02:19:00;6.95;;;4.13;;
25391;SDS011;13329;48.402;11.718;2024-02-26T02:21:26;8.00;;;5.07;;
25391;SDS011;13329;48.402;11.718;2024-02-26T02:23:51;6.70;;;4.53;;
25391;SDS011;13329;48.402;11.718;2024-02-26T02:26:16;8.95;;;3.97;;
25391;SDS011;13329;48.402;11.718;2024-02-26T02:28:43;10.00;;;5.10;;
25391;SDS011;13329;48.402;11.718;2024-02-26T02:31:10;7.90;;;5.90;;
25391;SDS011;13329;48.402;11.718;2024-02-26T02:33:35;7.95;;;4.63;;
25391;SDS011;13329;48.402;11.718;2024-02-26T02:36:01;9.25;;;5.35;;
25391;SDS011;13329;48.402;11.718;2024-02-26T02:38:26;7.55;;;4.38;;
25391;SDS011;13329;48.402;11.718;2024-02-26T02:40:54;7.13;;;4.30;;
25391;SDS011;13329;48.402;11.718;2024-02-26T02:43:20;9.60;;;5.18;;
25391;SDS011;13329;48.402;11.718;2024-02-26T02:45:45;5.85;;;4.43;;
25391;SDS011;13329;48.402;11.718;2024-02-26T02:48:10;4.03;;;3.45;;
25391;SDS011;13329;48.402;11.718;2024-02-26T02:50:36;7.68;;;4.00;;
25391;SDS011;13329;48.402;11.718;2024-02-26T02:53:01;7.88;;;4.43;;
25391;SDS011;13329;48.402;11.718;2024-02-26T02:55:27;9.10;;;5.00;;
25391;SDS011;13329;48.402;11.718;2024-02-26T02:57:52;9.88;;;4.80;;
25391;SDS011;13329;48.402;11.718;2024-02-26T03:00:18;7.10;;;4.55;;
25391;SDS011;13329;48.402;11.718;2024-02-26T03:02:43;4.82;;;4.32;;
25391;SDS011;13329;48.402;11.718;2024-02-26T03:05:10;10.77;;;4.72;;
25391;SDS011;13329;48.402;11.718;2024-02-26T03:07:35;12.98;;;4.55;;
25391;SDS011;13329;48.402;11.718;2024-02-26T03:10:00;8.48;;;4.30;;
25391;SDS011;13329;48.402;11.718;2024-02-26T03:12:26;3.88;;;3.47;;
25391;SDS011;13329;48.402;11.718;2024-02-26T03:14:52;8.88;;;4.85;;
25391;SDS011;13329;48.402;11.718;2024-02-26T03:17:19;4.72;;;3.63;;
25391;SDS011;13329;48.402;11.718;2024-02-26T03:19:45;8.07;;;4.40;;
25391;SDS011;13329;48.402;11.718;2024-02-26T03:22:11;8.48;;;3.78;;
25391;SDS011;13329;48.402;11.718;2024-02-26T03:24:37;18.15;;;4.05;;
25391;SDS011;13329;48.402;11.718;2024-02-26T03:27:03;6.50;;;4.10;;
25391;SDS011;13329;48.402;11.718;2024-02-26T03:29:30;4.88;;;3.30;;
25391;SDS011;13329;48.402;11.718;2024-02-26T03:31:55;7.45;;;3.88;;
25391;SDS011;13329;48.402;11.718;2024-02-26T03:34:21;8.50;;;4.22;;
25391;SDS011;13329;48.402;11.718;2024-02-26T03:36:46;5.07;;;3.92;;
25391;SDS011;13329;48.402;11.718;2024-02-26T03:39:12;5.18;;;3.42;;
25391;SDS011;13329;48.402;11.718;2024-02-26T03:41:37;8.05;;;4.03;;
25391;SDS011;13329;48.402;11.718;2024-02-26T03:44:02;9.57;;;3.90;;
25391;SDS011;13329;48.402;11.718;2024-02-26T03:46:28;6.15;;;3.90;;
25391;SDS011;13329;48.402;11.718;2024-02-26T03:48:53;4.65;;;3.45;;
25391;SDS011;13329;48.402;11.718;2024-02-26T03:51:18;5.43;;;3.90;;
25391;SDS011;13329;48.402;11.718;2024-02-26T03:53:44;4.47;;;3.25;;
25391;SDS011;13329;48.402;11.718;2024-02-26T03:56:10;5.68;;;4.35;;
25391;SDS011;13329;48.402;11.718;2024-02-26T03:58:36;11.02;;;5.15;;
25391;SDS011;13329;48.402;11.718;2024-02-26T04:01:02;5.43;;;3.40;;
25391;SDS011;13329;48.402;11.718;2024-02-26T04:03:27;9.35;;;3.13;;
25391;SDS011;13329;48.402;11.718;2024-02-26T04:05:53;5.13;;;3.35;;
25391;SDS011;13329;48.402;11.718;2024-02-26T04:08:18;5.13;;;3.28;;
25391;SDS011;13329;48.402;11.718;2024-02-26T04:10:43;6.65;;;3.85;;
25391;SDS011;13329;48.402;11.718;2024-02-26T04:13:09;6.15;;;3.88;;
25391;SDS011;13329;48.402;11.718;2024-02-26T04:15:34;4.40;;;3.70;;
25391;SDS011;13329;48.402;11.718;2024-02-26T04:17:59;9.32;;;3.28;;
25391;SDS011;13329;48.402;11.718;2024-02-26T04:20:25;6.82;;;4.45;;
25391;SDS011;13329;48.402;11.718;2024-02-26T04:22:50;3.92;;;3.28;;
25391;SDS011;13329;48.402;11.718;2024-02-26T04:25:15;4.07;;;3.50;;
25391;SDS011;13329;48.402;11.718;2024-02-26T04:27:40;15.73;;;4.60;;
25391;SDS011;13329;48.402;11.718;2024-02-26T04:30:06;6.65;;;4.72;;
25391;SDS011;13329;48.402;11.718;2024-02-26T04:32:32;4.78;;;3.45;;
25391;SDS011;13329;48.402;11.718;2024-02-26T04:34:57;7.93;;;4.78;;
25391;SDS011;13329;48.402;11.718;2024-02-26T04:37:23;5.25;;;3.92;;
25391;SDS011;13329;48.402;11.718;2024-02-26T04:39:48;6.20;;;3.45;;
25391;SDS011;13329;48.402;11.718;2024-02-26T04:42:13;6.97;;;4.18;;
25391;SDS011;13329;48.402;11.718;2024-02-26T04:44:39;5.60;;;3.33;;
25391;SDS011;13329;48.402;11.718;2024-02-26T04:47:04;7.40;;;4.65;;
25391;SDS011;13329;48.402;11.718;2024-02-26T04:49:30;6.25;;;3.13;;
25391;SDS011;13329;48.402;11.718;2024-02-26T04:51:55;6.40;;;4.47;;
25391;SDS011;13329;48.402;11.718;2024-02-26T04:54:20;8.88;;;4.35;;
25391;SDS011;13329;48.402;11.718;2024-02-26T04:56:46;4.82;;;3.20;;
25391;SDS011;13329;48.402;11.718;2024-02-26T04:59:11;5.03;;;3.25;;
25391;SDS011;13329;48.402;11.718;2024-02-26T05:01:36;5.05;;;2.90;;
25391;SDS011;13329;48.402;11.718;2024-02-26T05:04:02;7.38;;;3.47;;
25391;SDS011;13329;48.402;11.718;2024-02-26T05:06:28;4.07;;;3.30;;
25391;SDS011;13329;48.402;11.718;2024-02-26T05:08:53;5.97;;;3.78;;
25391;SDS011;13329;48.402;11.718;2024-02-26T05:11:19;3.85;;;3.08;;
25391;SDS011;13329;48.402;11.718;2024-02-26T05:13:44;5.80;;;4.60;;
25391;SDS011;13329;48.402;11.718;2024-02-26T05:16:10;3.33;;;2.50;;
25391;SDS011;13329;48.402;11.718;2024-02-26T05:18:36;5.82;;;3.97;;
25391;SDS011;13329;48.402;11.718;2024-02-26T05:21:01;4.95;;;3.50;;
25391;SDS011;13329;48.402;11.718;2024-02-26T05:23:28;6.13;;;4.07;;
25391;SDS011;13329;48.402;11.718;2024-02-26T05:25:53;3.65;;;3.30;;
25391;SDS011;13329;48.402;11.718;2024-02-26T05:28:19;4.20;;;3.58;;
25391;SDS011;13329;48.402;11.718;2024-02-26T05:30:45;5.22;;;3.58;;
25391;SDS011;13329;48.402;11.718;2024-02-26T05:33:10;5.82;;;3.95;;
25391;SDS011;13329;48.402;11.718;2024-02-26T05:35:36;4.68;;;3.83;;
25391;SDS011;13329;48.402;11.718;2024-02-26T05:38:02;4.32;;;3.58;;
25391;SDS011;13329;48.402;11.718;2024-02-26T05:40:27;5.55;;;4.15;;
25391;SDS011;13329;48.402;11.718;2024-02-26T05:42:52;7.13;;;2.90;;
25391;SDS011;13329;48.402;11.718;2024-02-26T05:45:18;4.00;;;3.00;;
25391;SDS011;13329;48.402;11.718;2024-02-26T05:47:43;5.93;;;4.00;;
25391;SDS011;13329;48.402;11.718;2024-02-26T05:50:09;7.43;;;4.05;;
25391;SDS011;13329;48.402;11.718;2024-02-26T05:52:36;6.45;;;3.70;;
25391;SDS011;13329;48.402;11.718;2024-02-26T05:55:05;7.90;;;4.38;;
25391;SDS011;13329;48.402;11.718;2024-02-26T05:57:33;4.35;;;2.97;;
25391;SDS011;13329;48.402;11.718;2024-02-26T05:59:59;4.18;;;3.70;;
25391;SDS011;13329;48.402;11.718;2024-02-26T06:02:29;4.07;;;3.40;;
25391;SDS011;13329;48.402;11.718;2024-02-26T06:04:54;10.20;;;3.25;;
25391;SDS011;13329;48.402;11.718;2024-02-26T06:07:20;8.98;;;4.85;;
25391;SDS011;13329;48.402;11.718;2024-02-26T06:09:45;6.88;;;4.13;;
25391;SDS011;13329;48.402;11.718;2024-02-26T06:12:10;8.18;;;4.32;;
25391;SDS011;13329;48.402;11.718;2024-02-26T06:14:36;6.07;;;3.55;;
25391;SDS011;13329;48.402;11.718;2024-02-26T06:17:01;6.15;;;3.55;;
25391;SDS011;13329;48.402;11.718;2024-02-26T06:19:26;9.77;;;5.50;;
25391;SDS011;13329;48.402;11.718;2024-02-26T06:21:51;3.95;;;3.55;;
25391;SDS011;13329;48.402;11.718;2024-02-26T06:24:17;3.58;;;2.72;;
25391;SDS011;13329;48.402;11.718;2024-02-26T06:26:42;7.25;;;4.15;;
25391;SDS011;13329;48.402;11.718;2024-02-26T06:29:07;6.47;;;3.65;;
25391;SDS011;13329;48.402;11.718;2024-02-26T06:31:33;4.20;;;3.55;;
25391;SDS011;13329;48.402;11.718;2024-02-26T06:33:58;6.20;;;3.20;;
25391;SDS011;13329;48.402;11.718;2024-02-26T06:36:23;3.85;;;3.22;;
25391;SDS011;13329;48.402;11.718;2024-02-26T06:38:48;5.30;;;3.50;;
25391;SDS011;13329;48.402;11.718;2024-02-26T06:41:14;7.32;;;4.00;;
25391;SDS011;13329;48.402;11.718;2024-02-26T06:43:39;4.50;;;3.20;;
25391;SDS011;13329;48.402;11.718;2024-02-26T06:46:05;8.18;;;3.53;;
25391;SDS011;13329;48.402;11.718;2024-02-26T06:48:31;4.88;;;3.97;;
25391;SDS011;13329;48.402;11.718;2024-02-26T06:50:56;9.95;;;4.22;;
25391;SDS011;13329;48.402;11.718;2024-02-26T06:53:21;5.35;;;4.03;;
25391;SDS011;13329;48.402;11.718;2024-02-26T06:55:47;7.47;;;4.38;;
25391;SDS011;13329;48.402;11.718;2024-02-26T06:58:12;6.82;;;3.78;;
25391;SDS011;13329;48.402;11.718;2024-02-26T07:00:38;5.28;;;4.05;;
25391;SDS011;13329;48.402;11.718;2024-02-26T07:03:03;13.87;;;4.13;;
25391;SDS011;13329;48.402;11.718;2024-02-26T07:05:29;7.32;;;3.97;;
25391;SDS011;13329;48.402;11.718;2024-02-26T07:07:54;4.95;;;3.60;;
25391;SDS011;13329;48.402;11.718;2024-02-26T07:10:20;10.40;;;3.90;;
25391;SDS011;13329;48.402;11.718;2024-02-26T07:12:46;4.50;;;3.15;;
25391;SDS011;13329;48.402;11.718;2024-02-26T07:15:11;6.43;;;3.90;;
25391;SDS011;13329;48.402;11.718;2024-02-26T07:17:37;5.80;;;4.57;;
25391;SDS011;13329;48.402;11.718;2024-02-26T07:20:02;8.23;;;4.45;;
25391;SDS011;13329;48.402;11.718;2024-02-26T07:22:30;10.70;;;4.93;;
25391;SDS011;13329;48.402;11.718;2024-02-26T07:24:56;8.38;;;4.55;;
25391;SDS011;13329;48.402;11.718;2024-02-26T07:27:21;8.70;;;4.90;;
25391;SDS011;13329;48.402;11.718;2024-02-26T07:29:47;5.05;;;3.83;;
25391;SDS011;13329;48.402;11.718;2024-02-26T07:32:12;7.30;;;4.72;;
25391;SDS011;13329;48.402;11.718;2024-02-26T07:34:38;3.38;;;2.95;;
25391;SDS011;13329;48.402;11.718;2024-02-26T07:37:06;8.85;;;3.63;;
25391;SDS011;13329;48.402;11.718;2024-02-26T07:39:32;6.75;;;4.22;;
25391;SDS011;13329;48.402;11.718;2024-02-26T07:41:57;18.70;;;5.15;;
25391;SDS011;13329;48.402;11.718;2024-02-26T07:44:22;4.65;;;3.60;;
25391;SDS011;13329;48.402;11.718;2024-02-26T07:46:48;5.63;;;4.13;;
25391;SDS011;13329;48.402;11.718;2024-02-26T07:49:13;10.55;;;4.70;;
25391;SDS011;13329;48.402;11.718;2024-02-26T07:51:38;7.13;;;4.18;;
25391;SDS011;13329;48.402;11.718;2024-02-26T07:54:04;7.45;;;4.25;;
25391;SDS011;13329;48.402;11.718;2024-02-26T07:56:29;7.57;;;4.85;;
25391;SDS011;13329;48.402;11.718;2024-02-26T07:58:54;7.50;;;4.75;;
25391;SDS011;13329;48.402;11.718;2024-02-26T08:01:19;8.55;;;4.03;;
25391;SDS011;13329;48.402;11.718;2024-02-26T08:03:45;7.20;;;4.45;;
25391;SDS011;13329;48.402;11.718;2024-02-26T08:06:10;7.40;;;4.38;;
25391;SDS011;13329;48.402;11.718;2024-02-26T08:08:35;14.57;;;5.18;;
25391;SDS011;13329;48.402;11.718;2024-02-26T08:11:01;9.23;;;4.07;;
25391;SDS011;13329;48.402;11.718;2024-02-26T08:13:26;7.90;;;4.15;;
25391;SDS011;13329;48.402;11.718;2024-02-26T08:15:51;8.52;;;4.25;;
25391;SDS011;13329;48.402;11.718;2024-02-26T08:18:17;5.38;;;3.67;;
25391;SDS011;13329;48.402;11.718;2024-02-26T08:20:42;5.07;;;3.42;;
25391;SDS011;13329;48.402;11.718;2024-02-26T08:23:07;5.93;;;3.83;;
25391;SDS011;13329;48.402;11.718;2024-02-26T08:25:33;4.97;;;3.63;;
25391;SDS011;13329;48.402;11.718;2024-02-26T08:27:58;7.25;;;4.10;;
25391;SDS011;13329;48.402;11.718;2024-02-26T08:30:23;6.38;;;4.03;;
25391;SDS011;13329;48.402;11.718;2024-02-26T08:32:49;6.70;;;4.13;;
25391;SDS011;13329;48.402;11.718;2024-02-26T08:35:14;6.90;;;4.38;;
25391;SDS011;13329;48.402;11.718;2024-02-26T08:37:40;9.05;;;4.32;;
25391;SDS011;13329;48.402;11.718;2024-02-26T08:40:08;6.88;;;4.57;;
25391;SDS011;13329;48.402;11.718;2024-02-26T08:42:34;5.40;;;4.10;;
25391;SDS011;13329;48.402;11.718;2024-02-26T08:44:59;3.38;;;2.90;;
25391;SDS011;13329;48.402;11.718;2024-02-26T08:47:26;5.78;;;3.70;;
25391;SDS011;13329;48.402;11.718;2024-02-26T08:49:51;5.20;;;3.30;;
25391;SDS011;13329;48.402;11.718;2024-02-26T08:52:16;6.97;;;3.80;;
25391;SDS011;13329;48.402;11.718;2024-02-26T08:54:42;6.07;;;3.55;;
25391;SDS011;13329;48.402;11.718;2024-02-26T08:57:07;7.00;;;4.28;;
25391;SDS011;13329;48.402;11.718;2024-02-26T08:59:32;7.13;;;3.50;;
25391;SDS011;13329;48.402;11.718;2024-02-26T09:01:58;7.47;;;3.53;;
25391;SDS011;13329;48.402;11.718;2024-02-26T09:04:23;5.10;;;3.72;;
25391;SDS011;13329;48.402;11.718;2024-02-26T09:06:48;6.93;;;3.67;;
25391;SDS011;13329;48.402;11.718;2024-02-26T09:09:14;9.77;;;3.85;;
25391;SDS011;13329;48.402;11.718;2024-02-26T09:11:39;10.50;;;3.63;;
25391;SDS011;13329;48.402;11.718;2024-02-26T09:14:05;10.05;;;4.85;;
25391;SDS011;13329;48.402;11.718;2024-02-26T09:16:30;7.20;;;4.38;;
25391;SDS011;13329;48.402;11.718;2024-02-26T09:18:56;9.00;;;4.85;;
25391;SDS011;13329;48.402;11.718;2024-02-26T09:21:21;6.72;;;3.63;;
25391;SDS011;13329;48.402;11.718;2024-02-26T09:23:51;13.10;;;4.20;;
25391;SDS011;13329;48.402;11.718;2024-02-26T09:26:17;6.30;;;3.95;;
25391;SDS011;13329;48.402;11.718;2024-02-26T09:28:43;5.50;;;3.85;;
25391;SDS011;13329;48.402;11.718;2024-02-26T09:31:08;8.95;;;4.47;;
25391;SDS011;13329;48.402;11.718;2024-02-26T09:33:34;11.55;;;4.55;;
25391;SDS011;13329;48.402;11.718;2024-02-26T09:35:59;5.55;;;3.67;;
25391;SDS011;13329;48.402;11.718;2024-02-26T09:38:27;9.65;;;4.22;;
25391;SDS011;13329;48.402;11.718;2024-02-26T09:40:54;4.93;;;3.40;;
25391;SDS011;13329;48.402;11.718;2024-02-26T09:43:23;6.32;;;3.28;;
25391;SDS011;13329;48.402;11.718;2024-02-26T09:45:52;8.70;;;4.18;;
25391;SDS011;13329;48.402;11.718;2024-02-26T09:48:18;4.68;;;3.58;;
25391;SDS011;13329;48.402;11.718;2024-02-26T09:50:44;7.40;;;3.00;;
25391;SDS011;13329;48.402;11.718;2024-02-26T09:53:11;6.32;;;3.35;;
25391;SDS011;13329;48.402;11.718;2024-02-26T09:55:38;4.63;;;2.67;;
25391;SDS011;13329;48.402;11.718;2024-02-26T09:58:05;4.82;;;3.20;;
25391;SDS011;13329;48.402;11.718;2024-02-26T10:00:35;3.47;;;2.58;;
25391;SDS011;13329;48.402;11.718;2024-02-26T10:03:03;5.10;;;3.15;;
25391;SDS011;13329;48.402;11.718;2024-02-26T10:05:29;4.43;;;2.72;;
25391;SDS011;13329;48.402;11.718;2024-02-26T10:07:57;4.53;;;3.30;;
25391;SDS011;13329;48.402;11.718;2024-02-26T10:10:23;5.07;;;2.78;;
25391;SDS011;13329;48.402;11.718;2024-02-26T10:12:48;5.63;;;2.65;;
25391;SDS011;13329;48.402;11.718;2024-02-26T10:15:14;5.05;;;2.65;;
25391;SDS011;13329;48.402;11.718;2024-02-26T10:17:39;3.08;;;2.38;;
25391;SDS011;13329;48.402;11.718;2024-02-26T10:20:15;3.15;;;1.95;;
25391;SDS011;13329;48.402;11.718;2024-02-26T10:22:48;4.28;;;2.53;;
25391;SDS011;13329;48.402;11.718;2024-02-26T10:25:13;5.40;;;2.60;;
25391;SDS011;13329;48.402;11.718;2024-02-26T10:27:42;4.05;;;2.15;;
25391;SDS011;13329;48.402;11.718;2024-02-26T10:30:17;4.70;;;2.40;;
25391;SDS011;13329;48.402;11.718;2024-02-26T10:32:46;3.80;;;2.63;;
25391;SDS011;13329;48.402;11.718;2024-02-26T10:35:13;3.72;;;2.38;;
25391;SDS011;13329;48.402;11.718;2024-02-26T10:37:42;4.60;;;2.78;;
25391;SDS011;13329;48.402;11.718;2024-02-26T10:40:11;3.83;;;2.22;;
25391;SDS011;13329;48.402;11.718;2024-02-26T10:42:37;4.03;;;2.35;;
25391;SDS011;13329;48.402;11.718;2024-02-26T10:45:06;2.92;;;1.80;;
25391;SDS011;13329;48.402;11.718;2024-02-26T10:47:34;4.82;;;2.70;;
25391;SDS011;13329;48.402;11.718;2024-02-26T10:50:01;3.20;;;1.95;;
25391;SDS011;13329;48.402;11.718;2024-02-26T10:52:28;3.00;;;1.65;;
25391;SDS011;13329;48.402;11.718;2024-02-26T10:54:57;4.72;;;2.17;;
25391;SDS011;13329;48.402;11.718;2024-02-26T10:57:27;2.28;;;1.58;;
25391;SDS011;13329;48.402;11.718;2024-02-26T10:59:57;2.33;;;1.67;;
25391;SDS011;13329;48.402;11.718;2024-02-26T11:02:24;3.05;;;1.80;;
25391;SDS011;13329;48.402;11.718;2024-02-26T11:04:49;2.15;;;1.65;;
25391;SDS011;13329;48.402;11.718;2024-02-26T11:07:15;2.88;;;1.60;;
25391;SDS011;13329;48.402;11.718;2024-02-26T11:09:42;2.13;;;1.60;;
25391;SDS011;13329;48.402;11.718;2024-02-26T11:12:10;3.45;;;1.90;;
25391;SDS011;13329;48.402;11.718;2024-02-26T11:14:38;6.35;;;1.83;;
25391;SDS011;13329;48.402;11.718;2024-02-26T11:17:04;3.30;;;1.65;;
25391;SDS011;13329;48.402;11.718;2024-02-26T11:19:32;2.08;;;1.70;;
25391;SDS011;13329;48.402;11.718;2024-02-26T11:22:01;2.83;;;1.85;;
25391;SDS011;13329;48.402;11.718;2024-02-26T11:24:26;2.20;;;1.50;;
25391;SDS011;13329;48.402;11.718;2024-02-26T11:26:53;2.05;;;1.52;;
25391;SDS011;13329;48.402;11.718;2024-02-26T11:31:52;3.33;;;1.75;;
25391;SDS011;13329;48.402;11.718;2024-02-26T11:34:18;2.22;;;1.42;;
25391;SDS011;13329;48.402;11.718;2024-02-26T11:36:43;3.00;;;1.30;;
25391;SDS011;13329;48.402;11.718;2024-02-26T11:39:11;2.50;;;1.45;;
25391;SDS011;13329;48.402;11.718;2024-02-26T11:41:37;1.90;;;1.13;;
25391;SDS011;13329;48.402;11.718;2024-02-26T11:44:03;2.40;;;1.45;;
25391;SDS011;13329;48.402;11.718;2024-02-26T11:46:32;3.28;;;1.63;;
25391;SDS011;13329;48.402;11.718;2024-02-26T11:51:52;2.58;;;1.38;;
25391;SDS011;13329;48.402;11.718;2024-02-26T11:57:03;2.70;;;1.63;;
25391;SDS011;13329;48.402;11.718;2024-02-26T11:59:38;2.53;;;1.30;;
25391;SDS011;13329;48.402;11.718;2024-02-26T12:02:04;4.18;;;1.48;;
25391;SDS011;13329;48.402;11.718;2024-02-26T12:04:31;2.55;;;1.30;;
25391;SDS011;13329;48.402;11.718;2024-02-26T12:06:57;2.88;;;1.63;;
25391;SDS011;13329;48.402;11.718;2024-02-26T12:09:32;3.10;;;1.27;;
25391;SDS011;13329;48.402;11.718;2024-02-26T12:11:58;4.47;;;1.58;;
25391;SDS011;13329;48.402;11.718;2024-02-26T12:14:25;1.75;;;1.42;;
25391;SDS011;13329;48.402;11.718;2024-02-26T12:16:51;2.47;;;1.40;;
25391;SDS011;13329;48.402;11.718;2024-02-26T12:19:18;2.25;;;1.17;;
25391;SDS011;13329;48.402;11.718;2024-02-26T12:21:44;2.40;;;1.30;;
25391;SDS011;13329;48.402;11.718;2024-02-26T12:24:10;5.20;;;1.45;;
25391;SDS011;13329;48.402;11.718;2024-02-26T12:26:37;1.92;;;1.08;;
25391;SDS011;13329;48.402;11.718;2024-02-26T12:29:03;1.65;;;1.15;;
25391;SDS011;13329;48.402;11.718;2024-02-26T12:31:28;2.72;;;0.68;;
25391;SDS011;13329;48.402;11.718;2024-02-26T12:33:54;5.00;;;1.15;;
25391;SDS011;13329;48.402;11.718;2024-02-26T12:36:20;3.33;;;1.27;;
25391;SDS011;13329;48.402;11.718;2024-02-26T12:38:46;2.10;;;1.10;;
25391;SDS011;13329;48.402;11.718;2024-02-26T12:41:11;2.47;;;1.33;;
25391;SDS011;13329;48.402;11.718;2024-02-26T12:43:38;2.03;;;1.30;;
25391;SDS011;13329;48.402;11.718;2024-02-26T12:46:03;1.70;;;1.13;;
25391;SDS011;13329;48.402;11.718;2024-02-26T12:48:29;1.70;;;1.23;;
25391;SDS011;13329;48.402;11.718;2024-02-26T12:50:54;2.72;;;1.88;;
25391;SDS011;13329;48.402;11.718;2024-02-26T12:53:21;4.10;;;1.42;;
25391;SDS011;13329;48.402;11.718;2024-02-26T12:55:47;3.38;;;1.67;;
25391;SDS011;13329;48.402;11.718;2024-02-26T12:58:12;3.50;;;1.95;;
25391;SDS011;13329;48.402;11.718;2024-02-26T13:00:39;5.22;;;2.08;;
25391;SDS011;13329;48.402;11.718;2024-02-26T13:03:05;7.70;;;2.00;;
25391;SDS011;13329;48.402;11.718;2024-02-26T13:05:31;4.43;;;2.17;;
25391;SDS011;13329;48.402;11.718;2024-02-26T13:07:57;3.30;;;1.83;;
25391;SDS011;13329;48.402;11.718;2024-02-26T13:10:22;3.50;;;2.05;;
25391;SDS011;13329;48.402;11.718;2024-02-26T13:12:49;2.17;;;1.42;;
25391;SDS011;13329;48.402;11.718;2024-02-26T13:15:18;2.67;;;1.30;;
25391;SDS011;13329;48.402;11.718;2024-02-26T13:17:46;5.43;;;1.60;;
25391;SDS011;13329;48.402;11.718;2024-02-26T13:20:12;3.85;;;1.30;;
25391;SDS011;13329;48.402;11.718;2024-02-26T13:22:39;2.53;;;1.30;;
25391;SDS011;13329;48.402;11.718;2024-02-26T13:25:05;1.63;;;1.10;;
25391;SDS011;13329;48.402;11.718;2024-02-26T13:27:34;2.63;;;1.17;;
25391;SDS011;13329;48.402;11.718;2024-02-26T13:30:08;1.65;;;1.08;;
25391;SDS011;13329;48.402;11.718;2024-02-26T13:32:35;1.63;;;1.27;;
25391;SDS011;13329;48.402;11.718;2024-02-26T13:35:05;1.90;;;1.25;;
25391;SDS011;13329;48.402;11.718;2024-02-26T13:37:31;2.22;;;1.20;;
25391;SDS011;13329;48.402;11.718;2024-02-26T13:39:56;0.93;;;0.73;;
25391;SDS011;13329;48.402;11.718;2024-02-26T13:42:21;1.75;;;1.30;;
25391;SDS011;13329;48.402;11.718;2024-02-26T13:44:47;2.85;;;1.40;;
25391;SDS011;13329;48.402;11.718;2024-02-26T13:47:12;1.60;;;1.10;;
25391;SDS011;13329;48.402;11.718;2024-02-26T13:49:38;2.47;;;0.80;;
25391;SDS011;13329;48.402;11.718;2024-02-26T13:52:03;1.90;;;1.00;;
25391;SDS011;13329;48.402;11.718;2024-02-26T13:54:29;0.95;;;0.73;;
25391;SDS011;13329;48.402;11.718;2024-02-26T13:56:54;1.13;;;0.80;;
25391;SDS011;13329;48.402;11.718;2024-02-26T13:59:19;1.27;;;0.90;;
25391;SDS011;13329;48.402;11.718;2024-02-26T14:01:44;1.50;;;0.68;;
25391;SDS011;13329;48.402;11.718;2024-02-26T14:04:10;1.60;;;0.82;;
25391;SDS011;13329;48.402;11.718;2024-02-26T14:06:35;2.35;;;1.00;;
25391;SDS011;13329;48.402;11.718;2024-02-26T14:09:01;1.83;;;1.05;;
25391;SDS011;13329;48.402;11.718;2024-02-26T14:11:26;1.08;;;0.80;;
25391;SDS011;13329;48.402;11.718;2024-02-26T14:13:54;3.20;;;0.98;;
25391;SDS011;13329;48.402;11.718;2024-02-26T14:16:19;2.80;;;0.88;;
25391;SDS011;13329;48.402;11.718;2024-02-26T14:18:45;1.10;;;0.68;;
25391;SDS011;13329;48.402;11.718;2024-02-26T14:21:11;0.95;;;0.73;;
25391;SDS011;13329;48.402;11.718;2024-02-26T14:23:37;0.82;;;0.60;;
25391;SDS011;13329;48.402;11.718;2024-02-26T14:26:02;1.25;;;0.60;;
25391;SDS011;13329;48.402;11.718;2024-02-26T14:28:28;2.25;;;0.70;;
25391;SDS011;13329;48.402;11.718;2024-02-26T14:30:54;0.63;;;0.50;;
25391;SDS011;13329;48.402;11.718;2024-02-26T14:33:19;2.72;;;1.00;;